ซานฟรานซิสโก, CA

02:24 AM PDT วัน พฤษภาคม 26, 2015 (GMT -0700)
SOMA - Near Van Ness | | Change Station
CLOSE
Current Station
Personal Weather Stations
Location: San Francisco, CA
Elevation: 49 ft
Nearby Weather Stations

Elev 49 ft 37.77 °N, 122.42 °W | Updated 59 seconds ago

มีเมฆคลุมไปทั่ว
มีเมฆคลุมไปทั่ว
53.5 ฟาเรนไฮน์
Feels Like 53.5 ฟาเรนไฮน์
N
0.0
ลม ความผันแปร ลม from ทางทิศใต้และทิศตะวันออกเฉียงใต้
Gusts 4.0 mph

วันนี้
High -- | Low -- ฟาเรนไฮน์
--% Chance of Precip.
Yesterday
High -- | Low -- ฟาเรนไฮน์
Precip. -- นิ้ว
5:52 AM 8:21 PM
ไตรมาสแรก, 56% visible
ความดัน 30.00 นิ้ว
ทัศนวิสัย 10.0 ไมล์
เมฆ Few 800 ft
มีเมฆคลุมเป็นบางส่วน 1000 ft
มีเมฆคลุมไปทั่ว 1600 ft
อุณหภูมิที่อากาศอาจจับตัวเป็นหยาดน้ำค้าง 51 ฟาเรนไฮน์
ความชื้น 92%
Rainfall 0.00 นิ้ว
Snow Depth Not available.
UV 0 out of 12
Pollen 6.20 out of 12
Air Quality Not available.
Flu Activity Sporadic
SPECI KSFO 260915Z 24005KT 10SM FEW008 SCT010 OVC016 13/10 A3000 RMK AO2

More Conditions Fewer Conditions

ความดัน 30.00 นิ้ว
ทัศนวิสัย 10.0 ไมล์
เมฆ Few 800 ft
มีเมฆคลุมเป็นบางส่วน 1000 ft
มีเมฆคลุมไปทั่ว 1600 ft
อุณหภูมิที่อากาศอาจจับตัวเป็นหยาดน้ำค้าง 51 ฟาเรนไฮน์
ความชื้น 92%
Rainfall 0.00 นิ้ว
Snow Depth Not available.
UV 0 out of 12
Pollen 6.20 out of 12
Air Quality Not available.
Flu Activity Sporadic
SPECI KSFO 260915Z 24005KT 10SM FEW008 SCT010 OVC016 13/10 A3000 RMK AO2

More Conditions Fewer Conditions

10-Day Weather Forecast

Almanac

ดาราศาสตร์

May. 26, 2015 Rise Set
Actual Time
Civil Twilight
Nautical Twilight
Astronomical Twilight
Moon
Length Of Visible Light
ความยาวของวัน
Tomorrow will be .
, % of the Moon is Illuminated

Today's Extremes

State Highs State Lows

Community

WunderPhotos

Upload Photos

1,824,302 photos uploaded!

WunderBlogs® & News

Nearby

Air Quality

  Air Quality AQ Index Pollutant
Not available.

Snow Depth

Station Depth Elevation

Earthquake Activity

City Distance Mag. Time & Date
Minimum magnitude displayed is 2.5.

Coastal Water Temperatures

สถานที่ อุณหภูมิ

Stations

Nearby Weather Stations

Station Location Temp ลมหนาว อุณหภูมิที่อากาศอาจจับตัวเป็นหยาดน้ำค้าง ความชื้น ลม Precip. Elev ปรับปรุงล่าสุด Type